EDT,Max TemperatureF,Mean TemperatureF,Min TemperatureF,Max Dew PointF,MeanDew PointF,Min DewpointF,Max Humidity, Mean Humidity, Min Humidity, Max Sea Level PressureIn, Mean Sea Level PressureIn, Min Sea Level PressureIn, Max VisibilityMiles, Mean VisibilityMiles, Min VisibilityMiles, Max Wind SpeedMPH, Mean Wind SpeedMPH, Max Gust SpeedMPH,PrecipitationIn, CloudCover, Events, WindDirDegrees
2012-10-1,69,64,57,55,53,51,87,68,54,29.97,29.83,29.77,10,10,10,23,10,34,0.00,1,,249
2012-10-2,75,64,55,64,58,51,88,77,52,30.06,30.03,29.97,10,10,10,10,3,,0.01,4,Rain,196
2012-10-3,72,68,66,69,66,63,94,90,87,30.12,30.06,30.02,10,2,0,9,5,,0.78,8,Fog-Rain,75
2012-10-4,70,66,63,64,62,60,94,88,78,30.13,30.09,30.02,10,6,1,13,6,,0.02,8,Rain,359
2012-10-5,75,68,62,64,62,59,94,85,64,30.04,29.99,29.94,10,7,0,12,4,,0.00,4,Fog,257
2012-10-6,75,65,55,65,59,45,96,83,56,29.94,29.89,29.78,10,5,0,21,6,30,0.01,3,Fog-Rain,229
2012-10-7,64,54,44,49,44,37,89,67,37,30.07,30.03,29.94,10,10,9,15,7,,0.17,4,Rain,332
2012-10-8,61,52,46,50,46,42,88,76,55,30.31,30.19,30.06,10,10,6,13,7,25,0.08,5,Rain,343
2012-10-9,60,57,55,54,53,50,88,85,80,30.28,30.19,30.11,10,8,3,18,11,29,0.42,8,Rain,64
2012-10-10,68,64,59,63,58,49,90,82,60,30.10,29.88,29.74,10,10,3,20,11,25,0.07,7,Rain,133
2012-10-11,62,54,44,48,38,35,76,54,39,30.17,30.06,29.83,10,10,10,18,12,28,0.01,0,,276
2012-10-12,64,55,46,46,38,22,73,56,39,30.34,30.13,30.04,10,10,10,18,9,29,0.00,2,Rain,300
2012-10-13,53,46,39,37,28,23,70,50,35,30.48,30.41,30.35,10,10,10,15,10,24,0.00,0,,307
2012-10-14,69,61,54,60,53,40,84,70,57,30.32,30.15,30.02,10,10,10,22,13,32,0.00,4,,223
2012-10-15,73,68,64,64,63,60,87,81,73,30.01,29.81,29.63,10,10,10,20,15,29,0.01,4,Rain,202
2012-10-16,66,54,41,63,47,36,88,67,41,29.86,29.67,29.57,10,10,10,16,8,25,0.12,4,Rain,291
2012-10-17,62,48,34,42,38,31,89,67,39,30.02,29.95,29.88,10,10,10,9,5,,0.00,0,,333
2012-10-18,66,50,35,51,45,31,93,76,58,30.11,30.09,30.03,10,8,1,10,3,,0.00,2,,125
2012-10-19,72,60,48,68,62,46,93,81,58,30.08,29.87,29.77,10,9,1,24,12,32,0.34,7,Rain-Thunderstorm,146
2012-10-20,71,67,62,68,63,50,93,86,65,29.78,29.72,29.67,10,9,1,14,10,22,0.42,6,Rain-Thunderstorm,198
2012-10-21,66,56,48,48,44,42,80,59,46,29.93,29.87,29.79,10,10,10,15,7,23,0.00,0,,269
2012-10-22,68,62,57,47,44,42,64,54,40,30.00,29.94,29.91,10,10,10,18,12,30,0.00,0,,292
2012-10-23,68,56,46,53,46,41,97,68,40,30.11,30.07,30.01,10,10,5,14,7,18,0.14,2,Rain,285
2012-10-24,55,50,45,53,48,43,97,83,67,30.22,30.15,30.11,10,10,10,12,6,,0.04,8,Rain,20
2012-10-25,63,50,37,49,41,36,97,80,48,30.30,30.27,30.22,10,10,10,8,2,,0.00,0,,89
2012-10-26,64,50,35,49,39,32,97,76,31,30.26,30.21,30.13,10,10,9,9,2,,0.00,0,,171
2012-10-27,66,50,37,52,42,36,100,78,38,30.13,30.04,29.97,10,10,10,14,3,,0.00,1,,56
2012-10-28,60,56,53,55,53,50,100,89,77,29.96,29.83,29.65,10,8,2,26,18,39,0.06,8,Rain,59
2012-10-29,64,60,55,63,59,54,100,95,87,29.64,29.31,29.03,10,5,2,41,26,61,0.34,8,Rain,74
2012-10-30,68,59,52,60,58,52,100,90,76,29.57,29.50,29.31,10,8,1,18,11,36,0.52,6,Rain,135
2012-10-31,60,56,51,58,51,43,100,85,69,29.59,29.54,29.48,10,9,5,13,7,22,0.07,6,Rain,226